sensor_id;sensor_type;location;lat;lon;timestamp;P1;durP1;ratioP1;P2;durP2;ratioP2
71955;SDS011;59829;50.562;6.258;2024-02-26T00:07:52;0.32;;;0.20;;
71955;SDS011;59829;50.562;6.258;2024-02-26T00:17:53;0.35;;;0.13;;
71955;SDS011;59829;50.562;6.258;2024-02-26T00:27:53;0.47;;;0.13;;
71955;SDS011;59829;50.562;6.258;2024-02-26T00:37:53;0.47;;;0.10;;
71955;SDS011;59829;50.562;6.258;2024-02-26T00:47:54;0.20;;;0.10;;
71955;SDS011;59829;50.562;6.258;2024-02-26T00:57:54;0.45;;;0.20;;
71955;SDS011;59829;50.562;6.258;2024-02-26T01:07:54;0.40;;;0.10;;
71955;SDS011;59829;50.562;6.258;2024-02-26T01:17:54;0.38;;;0.10;;
71955;SDS011;59829;50.562;6.258;2024-02-26T01:27:55;0.50;;;0.20;;
71955;SDS011;59829;50.562;6.258;2024-02-26T01:37:55;0.30;;;0.10;;
71955;SDS011;59829;50.562;6.258;2024-02-26T01:47:56;0.28;;;0.10;;
71955;SDS011;59829;50.562;6.258;2024-02-26T01:57:56;0.75;;;0.30;;
71955;SDS011;59829;50.562;6.258;2024-02-26T02:07:57;0.40;;;0.20;;
71955;SDS011;59829;50.562;6.258;2024-02-26T02:17:58;0.40;;;0.22;;
71955;SDS011;59829;50.562;6.258;2024-02-26T02:27:59;0.98;;;0.30;;
71955;SDS011;59829;50.562;6.258;2024-02-26T02:38:00;0.20;;;0.20;;
71955;SDS011;59829;50.562;6.258;2024-02-26T02:48:00;0.40;;;0.20;;
71955;SDS011;59829;50.562;6.258;2024-02-26T02:58:01;0.85;;;0.17;;
71955;SDS011;59829;50.562;6.258;2024-02-26T03:08:01;1.05;;;0.25;;
71955;SDS011;59829;50.562;6.258;2024-02-26T03:18:01;0.30;;;0.20;;
71955;SDS011;59829;50.562;6.258;2024-02-26T03:28:02;0.40;;;0.20;;
71955;SDS011;59829;50.562;6.258;2024-02-26T03:38:02;0.30;;;0.30;;
71955;SDS011;59829;50.562;6.258;2024-02-26T03:48:03;1.17;;;0.30;;
71955;SDS011;59829;50.562;6.258;2024-02-26T03:58:03;0.40;;;0.13;;
71955;SDS011;59829;50.562;6.258;2024-02-26T04:08:04;0.50;;;0.23;;
71955;SDS011;59829;50.562;6.258;2024-02-26T04:18:07;0.43;;;0.30;;
71955;SDS011;59829;50.562;6.258;2024-02-26T04:28:07;0.27;;;0.23;;
71955;SDS011;59829;50.562;6.258;2024-02-26T04:38:08;0.28;;;0.20;;
71955;SDS011;59829;50.562;6.258;2024-02-26T04:48:08;0.20;;;0.20;;
71955;SDS011;59829;50.562;6.258;2024-02-26T04:58:08;0.65;;;0.22;;
71955;SDS011;59829;50.562;6.258;2024-02-26T05:08:09;0.70;;;0.28;;
71955;SDS011;59829;50.562;6.258;2024-02-26T05:18:09;0.43;;;0.28;;
71955;SDS011;59829;50.562;6.258;2024-02-26T05:28:09;0.30;;;0.17;;
71955;SDS011;59829;50.562;6.258;2024-02-26T05:38:10;0.32;;;0.20;;
71955;SDS011;59829;50.562;6.258;2024-02-26T05:48:10;0.77;;;0.30;;
71955;SDS011;59829;50.562;6.258;2024-02-26T05:58:10;0.28;;;0.10;;
71955;SDS011;59829;50.562;6.258;2024-02-26T06:08:11;0.32;;;0.10;;
71955;SDS011;59829;50.562;6.258;2024-02-26T06:18:11;0.63;;;0.20;;
71955;SDS011;59829;50.562;6.258;2024-02-26T06:28:11;0.20;;;0.10;;
71955;SDS011;59829;50.562;6.258;2024-02-26T06:38:12;0.40;;;0.20;;
71955;SDS011;59829;50.562;6.258;2024-02-26T06:48:13;0.20;;;0.10;;
71955;SDS011;59829;50.562;6.258;2024-02-26T06:58:14;0.38;;;0.13;;
71955;SDS011;59829;50.562;6.258;2024-02-26T07:08:14;0.20;;;0.10;;
71955;SDS011;59829;50.562;6.258;2024-02-26T07:18:14;0.10;;;0.08;;
71955;SDS011;59829;50.562;6.258;2024-02-26T07:28:15;0.13;;;0.08;;
71955;SDS011;59829;50.562;6.258;2024-02-26T07:38:15;0.15;;;0.10;;
71955;SDS011;59829;50.562;6.258;2024-02-26T07:48:15;0.00;;;0.00;;
71955;SDS011;59829;50.562;6.258;2024-02-26T07:58:16;0.20;;;0.00;;
71955;SDS011;59829;50.562;6.258;2024-02-26T08:08:16;0.35;;;0.10;;
71955;SDS011;59829;50.562;6.258;2024-02-26T08:18:16;0.20;;;0.10;;
71955;SDS011;59829;50.562;6.258;2024-02-26T08:28:16;0.50;;;0.10;;
71955;SDS011;59829;50.562;6.258;2024-02-26T08:38:18;0.10;;;0.10;;
71955;SDS011;59829;50.562;6.258;2024-02-26T08:48:18;0.20;;;0.10;;
71955;SDS011;59829;50.562;6.258;2024-02-26T08:58:18;0.17;;;0.08;;
71955;SDS011;59829;50.562;6.258;2024-02-26T09:08:20;0.30;;;0.10;;
71955;SDS011;59829;50.562;6.258;2024-02-26T09:18:23;0.38;;;0.05;;
71955;SDS011;59829;50.562;6.258;2024-02-26T09:28:24;0.10;;;0.00;;
71955;SDS011;59829;50.562;6.258;2024-02-26T09:38:24;0.20;;;0.00;;
71955;SDS011;59829;50.562;6.258;2024-02-26T09:48:24;0.00;;;0.00;;
71955;SDS011;59829;50.562;6.258;2024-02-26T09:58:26;1.17;;;0.00;;
71955;SDS011;59829;50.562;6.258;2024-02-26T10:08:28;1.00;;;0.10;;
71955;SDS011;59829;50.562;6.258;2024-02-26T10:18:44;1.95;;;0.00;;
71955;SDS011;59829;50.562;6.258;2024-02-26T10:28:45;0.40;;;0.03;;
71955;SDS011;59829;50.562;6.258;2024-02-26T10:38:46;0.32;;;0.00;;
71955;SDS011;59829;50.562;6.258;2024-02-26T10:48:50;0.70;;;0.15;;
71955;SDS011;59829;50.562;6.258;2024-02-26T10:58:51;0.22;;;0.15;;
71955;SDS011;59829;50.562;6.258;2024-02-26T11:08:52;0.13;;;0.10;;
71955;SDS011;59829;50.562;6.258;2024-02-26T11:18:53;0.20;;;0.10;;
71955;SDS011;59829;50.562;6.258;2024-02-26T11:28:55;0.27;;;0.20;;
71955;SDS011;59829;50.562;6.258;2024-02-26T11:38:56;0.25;;;0.10;;
71955;SDS011;59829;50.562;6.258;2024-02-26T11:49:03;0.40;;;0.20;;
71955;SDS011;59829;50.562;6.258;2024-02-26T11:59:38;0.88;;;0.20;;
71955;SDS011;59829;50.562;6.258;2024-02-26T12:09:39;1.55;;;0.40;;
71955;SDS011;59829;50.562;6.258;2024-02-26T12:19:41;0.40;;;0.30;;
71955;SDS011;59829;50.562;6.258;2024-02-26T12:29:41;0.63;;;0.30;;
71955;SDS011;59829;50.562;6.258;2024-02-26T12:39:41;0.47;;;0.30;;
71955;SDS011;59829;50.562;6.258;2024-02-26T12:49:42;3.08;;;0.40;;
71955;SDS011;59829;50.562;6.258;2024-02-26T12:59:44;0.55;;;0.30;;
71955;SDS011;59829;50.562;6.258;2024-02-26T13:09:45;1.00;;;0.50;;
71955;SDS011;59829;50.562;6.258;2024-02-26T13:19:48;1.58;;;0.70;;
71955;SDS011;59829;50.562;6.258;2024-02-26T13:40:06;3.55;;;0.80;;
71955;SDS011;59829;50.562;6.258;2024-02-26T13:50:08;2.78;;;0.90;;
71955;SDS011;59829;50.562;6.258;2024-02-26T14:00:09;4.40;;;1.00;;
71955;SDS011;59829;50.562;6.258;2024-02-26T14:10:11;1.40;;;0.52;;
71955;SDS011;59829;50.562;6.258;2024-02-26T14:20:12;1.40;;;0.80;;
71955;SDS011;59829;50.562;6.258;2024-02-26T14:30:12;0.80;;;0.50;;
71955;SDS011;59829;50.562;6.258;2024-02-26T14:40:13;1.30;;;0.70;;
71955;SDS011;59829;50.562;6.258;2024-02-26T14:50:13;2.05;;;0.73;;
71955;SDS011;59829;50.562;6.258;2024-02-26T15:00:14;1.65;;;0.82;;
71955;SDS011;59829;50.562;6.258;2024-02-26T15:10:14;1.83;;;0.77;;
71955;SDS011;59829;50.562;6.258;2024-02-26T15:20:15;1.40;;;0.82;;
71955;SDS011;59829;50.562;6.258;2024-02-26T15:30:16;1.55;;;0.88;;
71955;SDS011;59829;50.562;6.258;2024-02-26T15:40:16;1.33;;;0.80;;
71955;SDS011;59829;50.562;6.258;2024-02-26T15:50:17;1.92;;;0.90;;
71955;SDS011;59829;50.562;6.258;2024-02-26T16:00:17;1.08;;;0.70;;
71955;SDS011;59829;50.562;6.258;2024-02-26T16:10:18;1.23;;;0.60;;
71955;SDS011;59829;50.562;6.258;2024-02-26T16:20:19;1.23;;;0.70;;
71955;SDS011;59829;50.562;6.258;2024-02-26T16:30:21;1.73;;;0.80;;
71955;SDS011;59829;50.562;6.258;2024-02-26T16:40:21;1.90;;;0.90;;
71955;SDS011;59829;50.562;6.258;2024-02-26T16:50:22;1.42;;;1.00;;
71955;SDS011;59829;50.562;6.258;2024-02-26T17:00:22;3.35;;;1.50;;
71955;SDS011;59829;50.562;6.258;2024-02-26T17:10:23;2.13;;;1.20;;
71955;SDS011;59829;50.562;6.258;2024-02-26T17:20:23;2.13;;;1.10;;
71955;SDS011;59829;50.562;6.258;2024-02-26T17:30:23;1.95;;;1.10;;
71955;SDS011;59829;50.562;6.258;2024-02-26T17:40:24;1.30;;;0.80;;
71955;SDS011;59829;50.562;6.258;2024-02-26T17:50:24;1.40;;;0.88;;
71955;SDS011;59829;50.562;6.258;2024-02-26T18:00:26;1.73;;;1.00;;
71955;SDS011;59829;50.562;6.258;2024-02-26T18:10:28;1.25;;;0.70;;
71955;SDS011;59829;50.562;6.258;2024-02-26T18:20:29;2.75;;;1.25;;
71955;SDS011;59829;50.562;6.258;2024-02-26T18:30:29;1.90;;;1.00;;
71955;SDS011;59829;50.562;6.258;2024-02-26T18:40:30;1.88;;;1.10;;
71955;SDS011;59829;50.562;6.258;2024-02-26T18:50:30;2.65;;;1.38;;
71955;SDS011;59829;50.562;6.258;2024-02-26T19:00:30;2.10;;;1.30;;
71955;SDS011;59829;50.562;6.258;2024-02-26T19:10:31;3.15;;;1.65;;
71955;SDS011;59829;50.562;6.258;2024-02-26T19:20:31;3.40;;;1.67;;
71955;SDS011;59829;50.562;6.258;2024-02-26T19:30:31;3.92;;;2.00;;
71955;SDS011;59829;50.562;6.258;2024-02-26T19:40:32;3.30;;;1.95;;
71955;SDS011;59829;50.562;6.258;2024-02-26T19:50:33;4.55;;;2.30;;
71955;SDS011;59829;50.562;6.258;2024-02-26T20:00:34;5.38;;;2.65;;
71955;SDS011;59829;50.562;6.258;2024-02-26T20:10:35;5.55;;;2.92;;
71955;SDS011;59829;50.562;6.258;2024-02-26T20:20:35;5.80;;;3.00;;
71955;SDS011;59829;50.562;6.258;2024-02-26T20:30:36;6.00;;;3.20;;
71955;SDS011;59829;50.562;6.258;2024-02-26T20:40:36;6.32;;;3.15;;
71955;SDS011;59829;50.562;6.258;2024-02-26T20:50:36;6.18;;;3.20;;
71955;SDS011;59829;50.562;6.258;2024-02-26T21:00:37;6.20;;;3.15;;
71955;SDS011;59829;50.562;6.258;2024-02-26T21:10:41;6.47;;;3.40;;
71955;SDS011;59829;50.562;6.258;2024-02-26T21:20:42;6.28;;;3.35;;
71955;SDS011;59829;50.562;6.258;2024-02-26T21:30:43;6.50;;;3.40;;
71955;SDS011;59829;50.562;6.258;2024-02-26T21:40:43;6.93;;;3.60;;
71955;SDS011;59829;50.562;6.258;2024-02-26T21:50:44;7.00;;;3.50;;
71955;SDS011;59829;50.562;6.258;2024-02-26T22:00:45;6.72;;;3.45;;
71955;SDS011;59829;50.562;6.258;2024-02-26T22:10:46;6.35;;;3.30;;
71955;SDS011;59829;50.562;6.258;2024-02-26T22:20:48;5.97;;;3.37;;
71955;SDS011;59829;50.562;6.258;2024-02-26T22:30:48;5.93;;;3.05;;
71955;SDS011;59829;50.562;6.258;2024-02-26T22:40:49;6.82;;;3.28;;
71955;SDS011;59829;50.562;6.258;2024-02-26T22:50:49;7.70;;;3.22;;
71955;SDS011;59829;50.562;6.258;2024-02-26T23:00:50;6.40;;;3.38;;
71955;SDS011;59829;50.562;6.258;2024-02-26T23:10:51;7.43;;;3.33;;
71955;SDS011;59829;50.562;6.258;2024-02-26T23:20:51;8.00;;;3.38;;
71955;SDS011;59829;50.562;6.258;2024-02-26T23:30:52;6.65;;;3.33;;
71955;SDS011;59829;50.562;6.258;2024-02-26T23:40:52;7.30;;;3.78;;
71955;SDS011;59829;50.562;6.258;2024-02-26T23:50:52;8.10;;;3.80;;
